createdAt,value
2018-05-21T00:02:24.853Z,64.69
2018-05-21T00:04:52.275Z,65.02
2018-05-21T00:07:19.802Z,65.21
2018-05-21T00:09:47.201Z,65.50
2018-05-21T00:12:14.679Z,65.76
2018-05-21T00:14:42.185Z,66.00
2018-05-21T00:17:09.700Z,65.85
2018-05-21T00:22:09.736Z,66.17
2018-05-21T00:24:37.163Z,65.86
2018-05-21T00:27:04.660Z,66.03
2018-05-21T00:29:32.798Z,66.20
2018-05-21T00:32:00.281Z,66.16
2018-05-21T00:34:27.714Z,66.21
2018-05-21T00:36:55.319Z,65.89
2018-05-21T00:39:22.719Z,65.71
2018-05-21T00:41:50.788Z,65.64
2018-05-21T00:44:18.301Z,65.17
2018-05-21T00:46:45.741Z,65.17
2018-05-21T00:49:13.243Z,65.17
2018-05-21T00:51:40.730Z,65.17
2018-05-21T00:54:08.190Z,65.31
2018-05-21T00:56:35.637Z,65.81
2018-05-21T00:59:03.096Z,66.21
2018-05-21T01:01:30.838Z,66.61
2018-05-21T01:03:58.210Z,67.16
2018-05-21T01:06:25.639Z,67.24
2018-05-21T01:08:53.127Z,67.45
2018-05-21T01:11:20.536Z,67.70
2018-05-21T01:13:48.060Z,68.23
2018-05-21T01:16:15.512Z,68.16
2018-05-21T01:18:43.194Z,68.25
2018-05-21T01:21:10.703Z,68.42
2018-05-21T01:23:38.123Z,68.17
2018-05-21T01:26:06.449Z,68.23
2018-05-21T01:28:33.851Z,68.38
2018-05-21T01:31:01.312Z,68.50
2018-05-21T01:33:28.713Z,68.67
2018-05-21T01:35:59.802Z,68.64
2018-05-21T01:38:27.225Z,68.40
2018-05-21T01:40:54.661Z,68.44
2018-05-21T01:43:22.072Z,68.31
2018-05-21T01:45:49.486Z,68.22
2018-05-21T01:48:17.045Z,67.90
2018-05-21T01:50:44.484Z,67.63
2018-05-21T01:53:11.963Z,67.30
2018-05-21T01:55:39.443Z,67.44
2018-05-21T01:58:06.909Z,67.12
2018-05-21T02:00:34.390Z,67.25
2018-05-21T02:03:02.552Z,67.69
2018-05-21T02:05:29.949Z,67.21
2018-05-21T02:07:57.400Z,66.88
2018-05-21T02:10:24.842Z,66.73
2018-05-21T02:12:52.272Z,66.83
2018-05-21T02:15:19.664Z,66.97
2018-05-21T02:17:47.067Z,67.28
2018-05-21T02:20:14.678Z,67.67
2018-05-21T02:22:42.134Z,67.70
2018-05-21T02:25:10.607Z,67.73
2018-05-21T02:27:38.058Z,68.50
2018-05-21T02:30:05.486Z,68.85
2018-05-21T02:32:33.646Z,68.94
2018-05-21T02:35:01.124Z,68.73
2018-05-21T02:37:28.562Z,68.74
2018-05-21T02:39:56.811Z,68.86
2018-05-21T02:42:24.304Z,69.04
2018-05-21T02:44:51.747Z,69.00
2018-05-21T02:47:19.143Z,69.04
2018-05-21T02:49:46.554Z,69.01
2018-05-21T02:52:14.010Z,68.87
2018-05-21T02:54:44.891Z,68.79
2018-05-21T02:57:12.447Z,68.46
2018-05-21T02:59:39.928Z,68.16
2018-05-21T03:02:07.386Z,67.95
2018-05-21T03:04:34.857Z,67.88
2018-05-21T03:07:02.255Z,67.69
2018-05-21T03:09:29.788Z,67.97
2018-05-21T03:11:58.077Z,68.45
2018-05-21T03:14:25.487Z,68.81
2018-05-21T03:16:52.943Z,68.93
2018-05-21T03:19:20.358Z,69.05
2018-05-21T03:21:47.838Z,69.19
2018-05-21T03:24:15.235Z,69.40
2018-05-21T03:26:42.643Z,69.29
2018-05-21T03:29:10.079Z,69.30
2018-05-21T03:31:38.337Z,69.26
2018-05-21T03:34:05.755Z,69.24
2018-05-21T03:36:33.239Z,69.39
2018-05-21T03:39:00.702Z,69.73
2018-05-21T03:41:28.778Z,69.89
2018-05-21T03:43:57.495Z,69.88
2018-05-21T03:46:24.914Z,70.00
2018-05-21T03:48:52.397Z,69.99
2018-05-21T03:51:19.840Z,69.87
2018-05-21T03:53:47.308Z,69.90
2018-05-21T03:56:16.711Z,69.85
2018-05-21T03:58:55.857Z,69.70
2018-05-21T04:01:34.992Z,69.60
2018-05-21T04:04:02.409Z,69.51
2018-05-21T04:06:29.893Z,69.49
2018-05-21T04:08:57.341Z,69.46
2018-05-21T04:11:24.836Z,69.25
2018-05-21T04:13:53.483Z,68.96
2018-05-21T04:16:21.091Z,68.95
2018-05-21T04:18:48.509Z,69.26
2018-05-21T04:21:15.943Z,69.15
2018-05-21T04:23:43.336Z,69.10
2018-05-21T04:26:14.619Z,69.12
2018-05-21T04:28:42.054Z,69.34
2018-05-21T04:31:09.529Z,69.43
2018-05-21T04:33:36.932Z,68.95
2018-05-21T04:36:05.586Z,68.68
2018-05-21T04:38:33.066Z,68.34
2018-05-21T04:41:00.588Z,68.28
2018-05-21T04:43:28.199Z,68.55
2018-05-21T04:45:55.597Z,68.28
2018-05-21T04:48:23.986Z,68.21
2018-05-21T04:50:51.501Z,68.26
2018-05-21T04:53:18.931Z,68.57
2018-05-21T04:55:46.381Z,69.21
2018-05-21T04:58:13.801Z,69.23
2018-05-21T05:00:42.407Z,68.98
2018-05-21T05:03:09.879Z,68.83
2018-05-21T05:05:37.348Z,68.82
2018-05-21T05:08:04.810Z,68.75
2018-05-21T05:10:32.662Z,68.90
2018-05-21T05:13:00.067Z,69.75
2018-05-21T05:15:27.483Z,69.85
2018-05-21T05:17:54.929Z,70.18
2018-05-21T05:20:23.324Z,70.22
2018-05-21T05:22:50.780Z,70.21
2018-05-21T05:25:18.437Z,70.40
2018-05-21T05:27:45.849Z,70.57
2018-05-21T05:30:13.345Z,70.48
2018-05-21T05:32:43.175Z,69.75
2018-05-21T05:35:10.653Z,69.31
2018-05-21T05:37:38.111Z,69.08
2018-05-21T05:40:05.634Z,69.00
2018-05-21T05:42:33.120Z,69.12
2018-05-21T05:45:00.578Z,69.10
2018-05-21T05:47:27.987Z,68.98
2018-05-21T05:49:55.428Z,68.97
2018-05-21T05:52:22.833Z,68.85
2018-05-21T05:54:50.265Z,68.76
2018-05-21T05:57:17.669Z,68.76
2018-05-21T05:59:45.317Z,68.95
2018-05-21T06:02:12.754Z,69.06
2018-05-21T06:04:41.029Z,68.78
2018-05-21T06:07:08.442Z,68.64
2018-05-21T06:09:35.883Z,68.23
2018-05-21T06:12:03.283Z,67.88
2018-05-21T06:14:30.686Z,67.52
2018-05-21T06:16:59.063Z,67.25
2018-05-21T06:19:26.603Z,67.43
2018-05-21T06:21:54.078Z,67.20
2018-05-21T06:24:21.535Z,66.98
2018-05-21T06:26:48.993Z,66.51
2018-05-21T06:29:16.432Z,66.37
2018-05-21T06:31:43.862Z,66.02
2018-05-21T06:34:11.544Z,65.88
2018-05-21T06:36:38.981Z,65.80
2018-05-21T06:39:06.404Z,65.69
2018-05-21T06:41:33.853Z,65.40
2018-05-21T06:44:01.284Z,64.85
2018-05-21T06:46:28.719Z,64.60
2018-05-21T06:48:56.161Z,64.59
2018-05-21T06:51:23.615Z,64.36
2018-05-21T06:53:51.838Z,64.25
2018-05-21T06:56:19.289Z,63.95
2018-05-21T06:58:46.747Z,63.69
2018-05-21T07:01:14.143Z,63.27
2018-05-21T07:03:41.598Z,63.21
2018-05-21T07:06:09.056Z,63.00
2018-05-21T07:08:38.398Z,62.70
2018-05-21T07:11:08.189Z,62.22
2018-05-21T07:13:35.616Z,61.84
2018-05-21T07:16:03.189Z,60.95
2018-05-21T07:18:30.579Z,60.08
2018-05-21T07:20:57.978Z,59.38
2018-05-21T07:23:26.002Z,58.52
2018-05-21T07:25:54.062Z,58.21
2018-05-21T07:28:22.473Z,57.66
2018-05-21T07:30:51.117Z,57.37
2018-05-21T07:33:18.758Z,56.31
2018-05-21T07:35:46.227Z,55.74
2018-05-21T07:38:13.643Z,55.38
2018-05-21T07:40:41.112Z,54.99
2018-05-21T07:43:08.551Z,54.84
2018-05-21T07:45:35.997Z,54.40
2018-05-21T07:48:03.409Z,53.77
2018-05-21T07:50:30.889Z,53.00
2018-05-21T07:52:59.377Z,52.90
2018-05-21T07:55:27.044Z,52.12
2018-05-21T07:57:55.639Z,50.47
2018-05-21T08:00:23.047Z,49.47
2018-05-21T08:02:51.027Z,49.62
2018-05-21T08:05:18.526Z,49.56
2018-05-21T08:07:45.942Z,49.21
2018-05-21T08:10:13.427Z,49.25
2018-05-21T08:12:40.876Z,47.93
2018-05-21T08:15:08.353Z,46.89
2018-05-21T08:17:35.816Z,46.80
2018-05-21T08:20:03.230Z,47.16
2018-05-21T08:22:31.447Z,47.48
2018-05-21T08:24:58.968Z,47.28
2018-05-21T08:27:26.355Z,46.12
2018-05-21T08:29:53.840Z,46.01
2018-05-21T08:32:21.272Z,45.33
2018-05-21T08:34:48.676Z,45.34
2018-05-21T08:37:16.108Z,44.56
2018-05-21T08:39:43.540Z,44.08
2018-05-21T08:42:10.980Z,43.76
2018-05-21T08:44:38.480Z,43.88
2018-05-21T08:47:05.955Z,44.38
2018-05-21T08:49:33.424Z,43.50
2018-05-21T08:52:00.872Z,42.85
2018-05-21T08:54:30.114Z,42.77
2018-05-21T08:56:57.543Z,42.60
2018-05-21T08:59:26.148Z,43.40
2018-05-21T09:01:53.681Z,43.73
2018-05-21T09:04:21.122Z,42.79
2018-05-21T09:06:48.561Z,42.21
2018-05-21T09:09:16.039Z,42.68
2018-05-21T09:11:43.546Z,42.56
2018-05-21T09:14:12.092Z,40.89
2018-05-21T09:16:39.523Z,41.16
2018-05-21T09:19:07.971Z,42.59
2018-05-21T09:21:35.406Z,42.38
2018-05-21T09:24:02.848Z,42.47
2018-05-21T09:26:30.317Z,41.71
2018-05-21T09:28:59.667Z,40.19
2018-05-21T09:31:27.178Z,41.18
2018-05-21T09:33:54.537Z,41.47
2018-05-21T09:36:22.311Z,41.51
2018-05-21T09:38:49.758Z,41.17
2018-05-21T09:41:17.174Z,40.62
2018-05-21T09:43:44.635Z,40.00
2018-05-21T09:46:12.057Z,40.22
2018-05-21T09:48:39.723Z,40.70
2018-05-21T09:51:07.234Z,40.44
2018-05-21T09:53:34.667Z,39.14
2018-05-21T09:56:02.145Z,38.05
2018-05-21T09:58:29.550Z,38.99
2018-05-21T10:00:57.121Z,39.75
2018-05-21T10:03:24.577Z,39.28
2018-05-21T10:05:52.125Z,39.08
2018-05-21T10:08:19.610Z,39.52
2018-05-21T10:10:47.064Z,39.04
2018-05-21T10:13:14.463Z,39.00
2018-05-21T10:15:41.943Z,38.93
2018-05-21T10:18:10.152Z,39.79
2018-05-21T10:20:37.640Z,40.81
2018-05-21T10:23:05.095Z,41.76
2018-05-21T10:25:33.888Z,42.41
2018-05-21T10:28:01.991Z,42.92
2018-05-21T10:30:29.398Z,43.91
2018-05-21T10:32:56.929Z,43.97
2018-05-21T10:35:24.359Z,43.64
2018-05-21T10:37:51.856Z,43.63
2018-05-21T10:40:19.334Z,43.23
2018-05-21T10:42:46.824Z,42.81
2018-05-21T10:45:14.284Z,42.49
2018-05-21T10:47:41.735Z,41.63
2018-05-21T10:50:09.194Z,42.34
2018-05-21T10:52:36.685Z,42.69
2018-05-21T10:55:04.152Z,42.77
2018-05-21T10:57:31.597Z,41.30
2018-05-21T10:59:59.132Z,40.36
2018-05-21T11:02:26.556Z,39.97
2018-05-21T11:04:53.993Z,40.69
2018-05-21T11:07:21.621Z,40.34
2018-05-21T11:09:49.209Z,38.87
2018-05-21T11:12:16.772Z,38.12
2018-05-21T11:14:44.222Z,37.26
2018-05-21T11:17:11.708Z,36.81
2018-05-21T11:19:39.154Z,36.43
2018-05-21T11:22:06.616Z,36.59
2018-05-21T11:24:34.358Z,36.53
2018-05-21T11:27:01.775Z,35.54
2018-05-21T11:29:29.297Z,34.74
2018-05-21T11:31:56.843Z,34.39
2018-05-21T11:34:24.268Z,34.78
2018-05-21T11:36:51.751Z,33.77
2018-05-21T11:39:19.204Z,33.18
2018-05-21T11:41:46.627Z,33.04
2018-05-21T11:44:14.043Z,33.40
2018-05-21T11:46:41.454Z,34.96
2018-05-21T11:49:09.239Z,35.69
2018-05-21T11:51:36.672Z,37.51
2018-05-21T11:54:04.171Z,38.71
2018-05-21T11:56:31.638Z,38.81
2018-05-21T11:58:59.086Z,38.67
2018-05-21T12:01:26.563Z,38.11
2018-05-21T12:03:53.982Z,36.55
2018-05-21T12:06:21.428Z,36.00
2018-05-21T12:08:48.898Z,36.63
2018-05-21T12:11:16.374Z,38.29
2018-05-21T12:13:43.865Z,38.87
2018-05-21T12:16:11.320Z,39.64
2018-05-21T12:18:39.795Z,40.63
2018-05-21T12:21:07.267Z,41.15
2018-05-21T12:23:35.489Z,40.84
2018-05-21T12:26:03.432Z,40.57
2018-05-21T12:28:30.929Z,42.39
2018-05-21T12:30:58.388Z,42.35
2018-05-21T12:33:25.859Z,42.36
2018-05-21T12:35:53.283Z,41.76
2018-05-21T12:38:20.862Z,41.11
2018-05-21T12:40:48.327Z,41.77
2018-05-21T12:43:15.811Z,42.01
2018-05-21T12:45:43.229Z,42.38
2018-05-21T12:48:10.674Z,42.68
2018-05-21T12:50:38.141Z,42.76
2018-05-21T12:53:05.540Z,41.92
2018-05-21T12:55:33.020Z,41.00
2018-05-21T12:58:00.426Z,39.04
2018-05-21T13:00:27.813Z,38.51
2018-05-21T13:02:55.235Z,38.64
2018-05-21T13:05:23.889Z,37.14
2018-05-21T13:07:52.126Z,36.39
2018-05-21T13:10:19.519Z,35.68
2018-05-21T13:12:46.994Z,34.86
2018-05-21T13:15:14.559Z,35.12
2018-05-21T13:17:41.942Z,34.68
2018-05-21T13:20:09.434Z,34.63
2018-05-21T13:22:36.892Z,34.43
2018-05-21T13:25:04.426Z,33.86
2018-05-21T13:27:31.949Z,33.31
2018-05-21T13:30:00.894Z,33.58
2018-05-21T13:32:29.212Z,33.34
2018-05-21T13:34:56.634Z,32.72
2018-05-21T13:37:24.295Z,34.13
2018-05-21T13:39:51.766Z,34.82
2018-05-21T13:42:19.226Z,35.62
2018-05-21T13:44:46.631Z,36.04
2018-05-21T13:47:14.852Z,36.39
2018-05-21T13:49:42.330Z,36.89
2018-05-21T13:52:09.817Z,36.84
2018-05-21T13:54:37.245Z,36.79
2018-05-21T13:57:04.708Z,37.10
2018-05-21T13:59:32.951Z,37.13
2018-05-21T14:02:00.391Z,36.01
2018-05-21T14:04:27.862Z,35.30
2018-05-21T14:06:55.317Z,35.43
2018-05-21T14:09:22.769Z,35.49
2018-05-21T14:11:50.250Z,34.88
2018-05-21T14:14:17.670Z,34.93
2018-05-21T14:16:45.089Z,35.29
2018-05-21T14:19:12.625Z,36.14
2018-05-21T14:21:40.081Z,36.76
2018-05-21T14:24:07.520Z,38.05
2018-05-21T14:26:35.922Z,40.44
2018-05-21T14:29:03.383Z,40.77
2018-05-21T14:31:30.852Z,41.43
2018-05-21T14:33:59.513Z,41.42
2018-05-21T14:36:27.976Z,41.37
2018-05-21T14:38:55.391Z,41.36
2018-05-21T14:41:22.799Z,41.00
2018-05-21T14:43:50.388Z,40.77
2018-05-21T14:46:17.794Z,40.69
2018-05-21T14:48:45.208Z,40.24
2018-05-21T14:51:12.653Z,40.14
2018-05-21T14:53:40.085Z,39.79
2018-05-21T14:56:07.636Z,39.18
2018-05-21T14:58:35.092Z,38.42
2018-05-21T15:01:02.491Z,37.24
2018-05-21T15:03:29.978Z,36.09
2018-05-21T15:05:57.371Z,36.13
2018-05-21T15:08:24.840Z,35.87
2018-05-21T15:10:52.461Z,36.21
2018-05-21T15:13:20.008Z,36.05
2018-05-21T15:15:47.420Z,35.31
2018-05-21T15:18:14.886Z,35.37
2018-05-21T15:20:42.390Z,35.17
2018-05-21T15:23:09.846Z,34.05
2018-05-21T15:25:39.572Z,34.50
2018-05-21T15:28:07.003Z,34.89
2018-05-21T15:30:34.417Z,34.68
2018-05-21T15:33:02.429Z,34.08
2018-05-21T15:35:29.888Z,33.93
2018-05-21T15:37:57.561Z,33.03
2018-05-21T15:40:25.001Z,32.43
2018-05-21T15:42:52.427Z,31.95
2018-05-21T15:45:21.023Z,31.71
2018-05-21T15:47:48.475Z,31.26
2018-05-21T15:50:16.549Z,30.31
2018-05-21T15:52:44.260Z,30.20
2018-05-21T15:55:12.570Z,29.91
2018-05-21T15:57:40.040Z,29.86
2018-05-21T16:00:07.484Z,30.18
2018-05-21T16:02:34.992Z,30.69
2018-05-21T16:05:05.777Z,31.30
2018-05-21T16:07:33.345Z,31.46
2018-05-21T16:10:01.003Z,31.48
2018-05-21T16:12:28.466Z,31.38
2018-05-21T16:14:56.630Z,31.23
2018-05-21T16:17:24.040Z,30.77
2018-05-21T16:19:51.477Z,30.18
2018-05-21T16:22:18.954Z,29.56
2018-05-21T16:24:46.388Z,29.93
2018-05-21T16:27:13.842Z,29.88
2018-05-21T16:29:41.325Z,29.75
2018-05-21T16:32:08.738Z,29.72
2018-05-21T16:34:36.240Z,29.66
2018-05-21T16:37:12.482Z,28.72
2018-05-21T16:39:39.967Z,28.88
2018-05-21T16:42:07.419Z,28.77
2018-05-21T16:44:34.864Z,29.22
2018-05-21T16:47:02.294Z,29.13
2018-05-21T16:49:29.796Z,29.19
2018-05-21T16:51:57.291Z,29.63
2018-05-21T16:54:24.783Z,30.13
2018-05-21T16:56:52.227Z,30.50
2018-05-21T16:59:19.653Z,30.52
2018-05-21T17:01:47.101Z,30.88
2018-05-21T17:04:14.529Z,30.71
2018-05-21T17:06:41.997Z,30.91
2018-05-21T17:09:09.544Z,30.98
2018-05-21T17:11:36.978Z,31.11
2018-05-21T17:14:04.482Z,31.18
2018-05-21T17:16:31.790Z,31.31
2018-05-21T17:18:59.280Z,31.57
2018-05-21T17:21:26.781Z,32.25
2018-05-21T17:23:54.811Z,33.02
2018-05-21T17:26:22.242Z,33.67
2018-05-21T17:28:49.786Z,34.34
2018-05-21T17:31:17.223Z,35.47
2018-05-21T17:33:44.731Z,36.83
2018-05-21T17:36:12.182Z,38.07
2018-05-21T17:38:40.320Z,39.21
2018-05-21T17:41:07.772Z,39.67
2018-05-21T17:43:35.226Z,39.90
2018-05-21T17:46:02.706Z,41.31
2018-05-21T17:48:31.069Z,42.62
2018-05-21T17:50:58.456Z,43.77
2018-05-21T17:53:25.886Z,45.50
2018-05-21T17:55:53.408Z,46.92
2018-05-21T17:58:21.002Z,48.09
2018-05-21T18:00:48.510Z,48.11
2018-05-21T18:03:16.004Z,47.80
2018-05-21T18:05:47.128Z,47.81
2018-05-21T18:08:15.954Z,47.61
2018-05-21T18:10:43.621Z,47.43
2018-05-21T18:13:11.119Z,47.21
2018-05-21T18:15:38.648Z,46.80
2018-05-21T18:18:06.100Z,46.58
2018-05-21T18:20:33.589Z,45.66
2018-05-21T18:23:01.075Z,44.29
2018-05-21T18:25:28.556Z,43.94
2018-05-21T18:27:56.023Z,43.47
2018-05-21T18:30:23.453Z,43.33
2018-05-21T18:32:50.917Z,42.74
2018-05-21T18:35:18.416Z,44.46
2018-05-21T18:37:45.885Z,43.75
2018-05-21T18:40:13.296Z,43.69
2018-05-21T18:42:40.829Z,43.32
2018-05-21T18:45:09.645Z,43.28
2018-05-21T18:47:37.451Z,43.24
2018-05-21T18:50:06.095Z,43.51
2018-05-21T18:52:33.603Z,42.37
2018-05-21T18:55:01.032Z,43.07
2018-05-21T18:57:28.466Z,43.13
2018-05-21T18:59:56.090Z,44.30
2018-05-21T19:02:23.593Z,44.95
2018-05-21T19:04:51.840Z,45.14
2018-05-21T19:07:19.418Z,45.22
2018-05-21T19:09:47.240Z,45.18
2018-05-21T19:12:14.703Z,45.48
2018-05-21T19:14:42.207Z,46.42
2018-05-21T19:17:09.746Z,46.67
2018-05-21T19:19:38.896Z,47.30
2018-05-21T19:22:06.424Z,47.23
2018-05-21T19:24:33.863Z,47.56
2018-05-21T19:27:02.300Z,47.83
2018-05-21T19:29:29.869Z,47.65
2018-05-21T19:31:58.318Z,47.78
2018-05-21T19:36:58.279Z,47.47
2018-05-21T19:39:25.790Z,47.69
2018-05-21T19:41:53.272Z,47.69
2018-05-21T19:44:20.723Z,47.77
2018-05-21T19:46:48.191Z,47.65
2018-05-21T19:49:15.628Z,47.52
2018-05-21T19:51:43.059Z,47.71
2018-05-21T19:54:10.509Z,47.82
2018-05-21T19:56:39.118Z,47.97
2018-05-21T19:59:07.254Z,47.90
2018-05-21T20:01:34.753Z,48.14
2018-05-21T20:04:03.517Z,48.44
2018-05-21T20:06:30.968Z,48.42
2018-05-21T20:08:58.367Z,48.23
2018-05-21T20:11:25.809Z,48.48
2018-05-21T20:13:53.231Z,48.51
2018-05-21T20:16:20.644Z,48.45
2018-05-21T20:18:48.104Z,48.63
2018-05-21T20:21:15.584Z,48.27
2018-05-21T20:23:43.095Z,48.33
2018-05-21T20:26:11.502Z,48.16
2018-05-21T20:28:38.945Z,48.05
2018-05-21T20:31:06.376Z,48.01
2018-05-21T20:33:33.836Z,48.19
2018-05-21T20:36:01.322Z,48.51
2018-05-21T20:38:28.788Z,48.53
2018-05-21T20:40:58.014Z,48.63
2018-05-21T20:43:25.619Z,48.62
2018-05-21T20:45:53.756Z,48.51
2018-05-21T20:48:21.201Z,48.50
2018-05-21T20:50:48.596Z,48.36
2018-05-21T20:53:16.070Z,48.53
2018-05-21T20:55:44.522Z,48.73
2018-05-21T20:58:11.948Z,48.57
2018-05-21T21:00:39.454Z,48.80
2018-05-21T21:03:10.727Z,48.42
2018-05-21T21:05:38.331Z,48.28
2018-05-21T21:08:05.728Z,48.28
2018-05-21T21:10:33.188Z,48.55
2018-05-21T21:13:00.604Z,49.30
2018-05-21T21:15:28.198Z,49.97
2018-05-21T21:17:55.668Z,50.35
2018-05-21T21:20:23.103Z,50.80
2018-05-21T21:22:50.586Z,51.05
2018-05-21T21:25:17.992Z,50.85
2018-05-21T21:27:45.441Z,50.78
2018-05-21T21:30:12.835Z,50.65
2018-05-21T21:32:40.305Z,51.64
2018-05-21T21:35:07.734Z,51.81
2018-05-21T21:37:35.137Z,51.42
2018-05-21T21:40:04.487Z,51.71
2018-05-21T21:42:31.976Z,52.16
2018-05-21T21:44:59.460Z,52.30
2018-05-21T21:47:26.923Z,52.46
2018-05-21T21:49:54.388Z,52.88
2018-05-21T21:52:21.853Z,52.98
2018-05-21T21:54:50.212Z,52.61
2018-05-21T21:57:17.661Z,52.96
2018-05-21T21:59:45.131Z,53.17
2018-05-21T22:02:13.665Z,52.57
2018-05-21T22:04:42.305Z,52.41
2018-05-21T22:07:10.497Z,52.19
2018-05-21T22:09:37.938Z,52.21
2018-05-21T22:12:05.331Z,52.28
2018-05-21T22:14:32.792Z,52.25
2018-05-21T22:17:00.230Z,52.54
2018-05-21T22:19:27.675Z,52.26
2018-05-21T22:21:55.105Z,51.72
2018-05-21T22:24:22.904Z,51.89
2018-05-21T22:26:50.312Z,52.05
2018-05-21T22:29:17.764Z,51.67
2018-05-21T22:31:45.276Z,51.45
2018-05-21T22:34:12.716Z,51.15
2018-05-21T22:36:40.169Z,51.22
2018-05-21T22:39:07.624Z,51.79
2018-05-21T22:41:35.010Z,52.05
2018-05-21T22:44:02.451Z,52.43
2018-05-21T22:46:29.919Z,52.70
2018-05-21T22:48:57.352Z,53.03
2018-05-21T22:51:24.961Z,53.46
2018-05-21T22:53:52.440Z,53.83
2018-05-21T22:56:19.925Z,54.06
2018-05-21T22:58:47.363Z,54.19
2018-05-21T23:01:14.913Z,54.46
2018-05-21T23:03:42.308Z,54.77
2018-05-21T23:06:12.712Z,54.85
2018-05-21T23:08:40.212Z,55.08
2018-05-21T23:11:07.633Z,55.29
2018-05-21T23:13:35.083Z,55.21
2018-05-21T23:16:02.546Z,55.15
2018-05-21T23:18:30.025Z,55.31
2018-05-21T23:20:57.485Z,55.29
2018-05-21T23:23:25.035Z,55.08
2018-05-21T23:25:52.462Z,54.99
2018-05-21T23:28:19.921Z,55.48
2018-05-21T23:30:47.394Z,55.38
2018-05-21T23:33:14.820Z,55.49
2018-05-21T23:35:42.293Z,55.98
2018-05-21T23:38:11.062Z,56.46
2018-05-21T23:40:38.470Z,56.60
2018-05-21T23:43:05.932Z,56.76
2018-05-21T23:45:33.418Z,57.00
2018-05-21T23:48:01.050Z,56.87
2018-05-21T23:50:28.516Z,56.67
2018-05-21T23:52:55.995Z,56.71
2018-05-21T23:55:23.470Z,56.53
2018-05-21T23:57:50.900Z,56.75
